sensor_id;sensor_type;location;lat;lon;timestamp;P1;durP1;ratioP1;P2;durP2;ratioP2
24635;SDS011;12772;49.794;10.024;2022-10-13T00:01:41;20.25;;;15.45;;
24635;SDS011;12772;49.794;10.024;2022-10-13T00:05:45;20.35;;;15.90;;
24635;SDS011;12772;49.794;10.024;2022-10-13T00:09:49;19.48;;;15.57;;
24635;SDS011;12772;49.794;10.024;2022-10-13T00:13:53;18.67;;;14.38;;
24635;SDS011;12772;49.794;10.024;2022-10-13T00:17:57;19.75;;;15.73;;
24635;SDS011;12772;49.794;10.024;2022-10-13T00:21:59;19.38;;;15.85;;
24635;SDS011;12772;49.794;10.024;2022-10-13T00:26:02;18.83;;;15.73;;
24635;SDS011;12772;49.794;10.024;2022-10-13T00:30:06;20.98;;;14.98;;
24635;SDS011;12772;49.794;10.024;2022-10-13T00:34:09;19.15;;;15.02;;
24635;SDS011;12772;49.794;10.024;2022-10-13T00:38:11;18.83;;;15.07;;
24635;SDS011;12772;49.794;10.024;2022-10-13T00:42:14;22.70;;;14.82;;
24635;SDS011;12772;49.794;10.024;2022-10-13T00:46:16;17.23;;;15.38;;
24635;SDS011;12772;49.794;10.024;2022-10-13T00:50:19;16.63;;;14.20;;
24635;SDS011;12772;49.794;10.024;2022-10-13T00:54:24;15.43;;;12.80;;
24635;SDS011;12772;49.794;10.024;2022-10-13T00:58:26;17.25;;;14.45;;
24635;SDS011;12772;49.794;10.024;2022-10-13T01:02:31;14.77;;;13.02;;
24635;SDS011;12772;49.794;10.024;2022-10-13T01:06:37;15.05;;;13.32;;
24635;SDS011;12772;49.794;10.024;2022-10-13T01:19:36;19.67;;;14.77;;
24635;SDS011;12772;49.794;10.024;2022-10-13T01:28:58;22.33;;;16.27;;
24635;SDS011;12772;49.794;10.024;2022-10-13T01:37:37;17.70;;;14.05;;
24635;SDS011;12772;49.794;10.024;2022-10-13T01:41:55;15.48;;;12.95;;
24635;SDS011;12772;49.794;10.024;2022-10-13T01:46:14;16.25;;;13.30;;
24635;SDS011;12772;49.794;10.024;2022-10-13T01:50:21;18.33;;;13.57;;
24635;SDS011;12772;49.794;10.024;2022-10-13T01:54:24;18.02;;;14.82;;
24635;SDS011;12772;49.794;10.024;2022-10-13T01:58:28;16.48;;;14.32;;
24635;SDS011;12772;49.794;10.024;2022-10-13T02:07:10;16.25;;;12.75;;
24635;SDS011;12772;49.794;10.024;2022-10-13T02:11:16;14.82;;;13.20;;
24635;SDS011;12772;49.794;10.024;2022-10-13T02:15:21;14.32;;;12.30;;
24635;SDS011;12772;49.794;10.024;2022-10-13T02:19:35;16.17;;;12.82;;
24635;SDS011;12772;49.794;10.024;2022-10-13T02:23:38;17.88;;;14.15;;
24635;SDS011;12772;49.794;10.024;2022-10-13T02:27:43;14.25;;;12.15;;
24635;SDS011;12772;49.794;10.024;2022-10-13T02:31:45;16.67;;;13.38;;
24635;SDS011;12772;49.794;10.024;2022-10-13T02:35:47;14.30;;;12.00;;
24635;SDS011;12772;49.794;10.024;2022-10-13T02:39:50;15.00;;;11.85;;
24635;SDS011;12772;49.794;10.024;2022-10-13T02:43:52;17.83;;;14.00;;
24635;SDS011;12772;49.794;10.024;2022-10-13T02:47:54;15.57;;;13.50;;
24635;SDS011;12772;49.794;10.024;2022-10-13T02:51:57;16.58;;;12.65;;
24635;SDS011;12772;49.794;10.024;2022-10-13T02:55:59;16.70;;;13.85;;
24635;SDS011;12772;49.794;10.024;2022-10-13T03:00:01;16.88;;;13.50;;
24635;SDS011;12772;49.794;10.024;2022-10-13T03:04:05;16.85;;;12.85;;
24635;SDS011;12772;49.794;10.024;2022-10-13T03:08:10;13.70;;;12.15;;
24635;SDS011;12772;49.794;10.024;2022-10-13T03:12:14;13.57;;;11.93;;
24635;SDS011;12772;49.794;10.024;2022-10-13T03:16:16;15.02;;;13.43;;
24635;SDS011;12772;49.794;10.024;2022-10-13T03:20:18;15.38;;;11.80;;
24635;SDS011;12772;49.794;10.024;2022-10-13T03:24:21;14.85;;;13.35;;
24635;SDS011;12772;49.794;10.024;2022-10-13T03:28:23;15.73;;;12.65;;
24635;SDS011;12772;49.794;10.024;2022-10-13T03:32:25;15.52;;;13.07;;
24635;SDS011;12772;49.794;10.024;2022-10-13T03:36:27;17.23;;;13.30;;
24635;SDS011;12772;49.794;10.024;2022-10-13T03:40:29;18.10;;;13.88;;
24635;SDS011;12772;49.794;10.024;2022-10-13T03:44:31;17.08;;;12.30;;
24635;SDS011;12772;49.794;10.024;2022-10-13T03:48:34;19.20;;;12.95;;
24635;SDS011;12772;49.794;10.024;2022-10-13T03:52:36;16.67;;;13.23;;
24635;SDS011;12772;49.794;10.024;2022-10-13T03:56:38;18.90;;;14.25;;
24635;SDS011;12772;49.794;10.024;2022-10-13T04:00:41;16.38;;;13.48;;
24635;SDS011;12772;49.794;10.024;2022-10-13T04:04:44;13.70;;;12.30;;
24635;SDS011;12772;49.794;10.024;2022-10-13T04:08:46;16.45;;;12.52;;
24635;SDS011;12772;49.794;10.024;2022-10-13T04:12:49;17.45;;;13.63;;
24635;SDS011;12772;49.794;10.024;2022-10-13T04:16:51;19.90;;;13.68;;
24635;SDS011;12772;49.794;10.024;2022-10-13T04:20:53;17.48;;;13.38;;
24635;SDS011;12772;49.794;10.024;2022-10-13T04:24:55;18.23;;;13.45;;
24635;SDS011;12772;49.794;10.024;2022-10-13T04:28:57;18.83;;;15.85;;
24635;SDS011;12772;49.794;10.024;2022-10-13T04:33:00;22.92;;;15.65;;
24635;SDS011;12772;49.794;10.024;2022-10-13T04:37:02;28.50;;;17.35;;
24635;SDS011;12772;49.794;10.024;2022-10-13T04:41:05;23.67;;;18.48;;
24635;SDS011;12772;49.794;10.024;2022-10-13T04:45:08;20.85;;;15.95;;
24635;SDS011;12772;49.794;10.024;2022-10-13T04:49:10;22.88;;;16.48;;
24635;SDS011;12772;49.794;10.024;2022-10-13T04:53:12;18.63;;;14.80;;
24635;SDS011;12772;49.794;10.024;2022-10-13T04:57:14;17.52;;;13.55;;
24635;SDS011;12772;49.794;10.024;2022-10-13T05:01:21;19.98;;;14.48;;
24635;SDS011;12772;49.794;10.024;2022-10-13T05:05:24;17.38;;;14.48;;
24635;SDS011;12772;49.794;10.024;2022-10-13T05:09:27;22.73;;;15.52;;
24635;SDS011;12772;49.794;10.024;2022-10-13T05:13:29;16.80;;;15.10;;
24635;SDS011;12772;49.794;10.024;2022-10-13T05:17:31;16.13;;;13.88;;
24635;SDS011;12772;49.794;10.024;2022-10-13T05:21:33;16.30;;;14.13;;
24635;SDS011;12772;49.794;10.024;2022-10-13T05:25:36;14.70;;;13.07;;
24635;SDS011;12772;49.794;10.024;2022-10-13T05:29:38;15.63;;;14.02;;
24635;SDS011;12772;49.794;10.024;2022-10-13T05:33:41;15.50;;;14.02;;
24635;SDS011;12772;49.794;10.024;2022-10-13T05:37:44;17.75;;;13.85;;
24635;SDS011;12772;49.794;10.024;2022-10-13T05:41:46;19.45;;;15.95;;
24635;SDS011;12772;49.794;10.024;2022-10-13T05:45:48;19.17;;;15.13;;
24635;SDS011;12772;49.794;10.024;2022-10-13T05:49:50;23.48;;;17.52;;
24635;SDS011;12772;49.794;10.024;2022-10-13T05:54:05;22.67;;;16.45;;
24635;SDS011;12772;49.794;10.024;2022-10-13T05:58:16;19.55;;;16.13;;
24635;SDS011;12772;49.794;10.024;2022-10-13T06:02:19;22.63;;;17.10;;
24635;SDS011;12772;49.794;10.024;2022-10-13T06:06:24;29.20;;;21.73;;
24635;SDS011;12772;49.794;10.024;2022-10-13T06:10:26;23.52;;;17.80;;
24635;SDS011;12772;49.794;10.024;2022-10-13T06:14:29;21.58;;;17.48;;
24635;SDS011;12772;49.794;10.024;2022-10-13T06:18:31;22.35;;;18.55;;
24635;SDS011;12772;49.794;10.024;2022-10-13T06:22:33;23.60;;;17.75;;
24635;SDS011;12772;49.794;10.024;2022-10-13T06:26:36;23.35;;;17.98;;
24635;SDS011;12772;49.794;10.024;2022-10-13T06:30:38;24.05;;;17.15;;
24635;SDS011;12772;49.794;10.024;2022-10-13T06:34:42;27.52;;;19.77;;
24635;SDS011;12772;49.794;10.024;2022-10-13T06:38:44;25.48;;;18.35;;
24635;SDS011;12772;49.794;10.024;2022-10-13T06:42:49;29.90;;;19.00;;
24635;SDS011;12772;49.794;10.024;2022-10-13T06:46:52;31.42;;;19.50;;
24635;SDS011;12772;49.794;10.024;2022-10-13T06:50:54;30.05;;;19.40;;
24635;SDS011;12772;49.794;10.024;2022-10-13T06:54:56;25.58;;;19.40;;
24635;SDS011;12772;49.794;10.024;2022-10-13T06:58:58;26.52;;;19.02;;
24635;SDS011;12772;49.794;10.024;2022-10-13T07:03:00;23.83;;;17.17;;
24635;SDS011;12772;49.794;10.024;2022-10-13T07:07:02;26.38;;;18.90;;
24635;SDS011;12772;49.794;10.024;2022-10-13T07:11:05;25.45;;;18.05;;
24635;SDS011;12772;49.794;10.024;2022-10-13T07:15:12;24.27;;;17.35;;
24635;SDS011;12772;49.794;10.024;2022-10-13T07:19:14;31.02;;;19.92;;
24635;SDS011;12772;49.794;10.024;2022-10-13T07:23:16;25.20;;;18.60;;
24635;SDS011;12772;49.794;10.024;2022-10-13T07:27:18;26.45;;;17.73;;
24635;SDS011;12772;49.794;10.024;2022-10-13T07:31:20;28.60;;;18.38;;
24635;SDS011;12772;49.794;10.024;2022-10-13T07:35:22;24.23;;;17.35;;
24635;SDS011;12772;49.794;10.024;2022-10-13T07:39:25;26.30;;;18.42;;
24635;SDS011;12772;49.794;10.024;2022-10-13T07:43:27;24.67;;;15.73;;
24635;SDS011;12772;49.794;10.024;2022-10-13T07:47:29;27.42;;;18.13;;
24635;SDS011;12772;49.794;10.024;2022-10-13T07:51:31;28.85;;;18.75;;
24635;SDS011;12772;49.794;10.024;2022-10-13T07:55:33;26.33;;;17.85;;
24635;SDS011;12772;49.794;10.024;2022-10-13T07:59:36;31.05;;;19.00;;
24635;SDS011;12772;49.794;10.024;2022-10-13T08:03:39;25.52;;;17.15;;
24635;SDS011;12772;49.794;10.024;2022-10-13T08:07:41;25.45;;;17.10;;
24635;SDS011;12772;49.794;10.024;2022-10-13T08:11:43;25.80;;;18.42;;
24635;SDS011;12772;49.794;10.024;2022-10-13T08:15:46;28.85;;;18.38;;
24635;SDS011;12772;49.794;10.024;2022-10-13T08:19:49;29.10;;;19.60;;
24635;SDS011;12772;49.794;10.024;2022-10-13T08:23:52;30.27;;;19.52;;
24635;SDS011;12772;49.794;10.024;2022-10-13T08:27:54;23.52;;;17.73;;
24635;SDS011;12772;49.794;10.024;2022-10-13T08:31:56;25.25;;;17.58;;
24635;SDS011;12772;49.794;10.024;2022-10-13T08:35:58;27.10;;;17.58;;
24635;SDS011;12772;49.794;10.024;2022-10-13T08:40:00;26.02;;;17.92;;
24635;SDS011;12772;49.794;10.024;2022-10-13T08:44:04;26.13;;;19.98;;
24635;SDS011;12772;49.794;10.024;2022-10-13T08:48:13;25.45;;;17.88;;
24635;SDS011;12772;49.794;10.024;2022-10-13T08:52:19;27.58;;;19.77;;
24635;SDS011;12772;49.794;10.024;2022-10-13T08:56:24;25.92;;;18.70;;
24635;SDS011;12772;49.794;10.024;2022-10-13T09:00:30;26.15;;;19.02;;
24635;SDS011;12772;49.794;10.024;2022-10-13T09:04:33;21.83;;;17.13;;
24635;SDS011;12772;49.794;10.024;2022-10-13T09:08:39;26.17;;;19.67;;
24635;SDS011;12772;49.794;10.024;2022-10-13T09:12:45;27.17;;;18.95;;
24635;SDS011;12772;49.794;10.024;2022-10-13T09:16:48;27.77;;;19.38;;
24635;SDS011;12772;49.794;10.024;2022-10-13T09:20:51;25.98;;;18.70;;
24635;SDS011;12772;49.794;10.024;2022-10-13T09:25:20;25.88;;;18.55;;
24635;SDS011;12772;49.794;10.024;2022-10-13T09:29:24;24.60;;;18.63;;
24635;SDS011;12772;49.794;10.024;2022-10-13T09:33:27;24.55;;;18.08;;
24635;SDS011;12772;49.794;10.024;2022-10-13T09:37:29;22.85;;;17.33;;
24635;SDS011;12772;49.794;10.024;2022-10-13T09:41:31;20.50;;;17.17;;
24635;SDS011;12772;49.794;10.024;2022-10-13T09:45:34;19.65;;;16.58;;
24635;SDS011;12772;49.794;10.024;2022-10-13T09:49:39;23.20;;;16.65;;
24635;SDS011;12772;49.794;10.024;2022-10-13T09:53:44;22.65;;;16.80;;
24635;SDS011;12772;49.794;10.024;2022-10-13T09:57:48;18.60;;;16.10;;
24635;SDS011;12772;49.794;10.024;2022-10-13T10:01:54;19.17;;;15.15;;
24635;SDS011;12772;49.794;10.024;2022-10-13T10:06:02;17.88;;;14.93;;
24635;SDS011;12772;49.794;10.024;2022-10-13T10:10:41;19.30;;;14.20;;
24635;SDS011;12772;49.794;10.024;2022-10-13T10:14:36;22.27;;;15.60;;
24635;SDS011;12772;49.794;10.024;2022-10-13T10:27:13;17.10;;;14.13;;
24635;SDS011;12772;49.794;10.024;2022-10-13T10:35:53;16.63;;;13.13;;
24635;SDS011;12772;49.794;10.024;2022-10-13T10:40:04;20.00;;;12.93;;
24635;SDS011;12772;49.794;10.024;2022-10-13T10:44:28;17.20;;;12.38;;
24635;SDS011;12772;49.794;10.024;2022-10-13T10:48:35;17.88;;;12.10;;
24635;SDS011;12772;49.794;10.024;2022-10-13T10:52:46;13.13;;;10.93;;
24635;SDS011;12772;49.794;10.024;2022-10-13T11:01:27;12.32;;;10.35;;
24635;SDS011;12772;49.794;10.024;2022-10-13T11:14:25;13.23;;;9.93;;
24635;SDS011;12772;49.794;10.024;2022-10-13T11:27:46;12.48;;;9.30;;
24635;SDS011;12772;49.794;10.024;2022-10-13T11:31:31;11.95;;;9.50;;
24635;SDS011;12772;49.794;10.024;2022-10-13T11:35:49;12.73;;;9.32;;
24635;SDS011;12772;49.794;10.024;2022-10-13T11:39:54;14.82;;;10.35;;
24635;SDS011;12772;49.794;10.024;2022-10-13T11:57:24;11.88;;;9.73;;
24635;SDS011;12772;49.794;10.024;2022-10-13T12:01:27;13.68;;;10.50;;
24635;SDS011;12772;49.794;10.024;2022-10-13T12:05:29;13.65;;;9.60;;
24635;SDS011;12772;49.794;10.024;2022-10-13T12:09:32;14.10;;;9.95;;
24635;SDS011;12772;49.794;10.024;2022-10-13T12:13:40;16.85;;;10.50;;
24635;SDS011;12772;49.794;10.024;2022-10-13T12:17:47;13.27;;;10.25;;
24635;SDS011;12772;49.794;10.024;2022-10-13T12:21:50;14.98;;;10.90;;
24635;SDS011;12772;49.794;10.024;2022-10-13T12:25:53;15.20;;;10.38;;
24635;SDS011;12772;49.794;10.024;2022-10-13T12:29:58;12.90;;;10.20;;
24635;SDS011;12772;49.794;10.024;2022-10-13T12:34:01;14.20;;;10.20;;
24635;SDS011;12772;49.794;10.024;2022-10-13T12:38:05;14.60;;;9.38;;
24635;SDS011;12772;49.794;10.024;2022-10-13T12:42:13;12.55;;;9.68;;
24635;SDS011;12772;49.794;10.024;2022-10-13T12:46:35;13.13;;;8.75;;
24635;SDS011;12772;49.794;10.024;2022-10-13T12:50:47;10.95;;;8.75;;
24635;SDS011;12772;49.794;10.024;2022-10-13T12:54:51;15.05;;;9.73;;
24635;SDS011;12772;49.794;10.024;2022-10-13T12:58:55;16.52;;;9.93;;
24635;SDS011;12772;49.794;10.024;2022-10-13T13:03:01;11.68;;;8.63;;
24635;SDS011;12772;49.794;10.024;2022-10-13T13:07:20;13.88;;;9.88;;
24635;SDS011;12772;49.794;10.024;2022-10-13T13:11:36;14.35;;;9.95;;
24635;SDS011;12772;49.794;10.024;2022-10-13T13:15:39;11.75;;;9.02;;
24635;SDS011;12772;49.794;10.024;2022-10-13T13:19:42;9.98;;;8.73;;
24635;SDS011;12772;49.794;10.024;2022-10-13T13:23:48;13.20;;;8.68;;
24635;SDS011;12772;49.794;10.024;2022-10-13T13:27:50;9.85;;;8.10;;
24635;SDS011;12772;49.794;10.024;2022-10-13T13:31:53;11.50;;;7.72;;
24635;SDS011;12772;49.794;10.024;2022-10-13T13:35:55;14.90;;;8.60;;
24635;SDS011;12772;49.794;10.024;2022-10-13T13:39:57;9.48;;;8.07;;
24635;SDS011;12772;49.794;10.024;2022-10-13T13:43:59;15.13;;;8.60;;
24635;SDS011;12772;49.794;10.024;2022-10-13T13:48:02;8.82;;;7.00;;
24635;SDS011;12772;49.794;10.024;2022-10-13T13:52:04;8.02;;;7.13;;
24635;SDS011;12772;49.794;10.024;2022-10-13T13:56:12;11.63;;;7.72;;
24635;SDS011;12772;49.794;10.024;2022-10-13T14:00:16;8.68;;;7.32;;
24635;SDS011;12772;49.794;10.024;2022-10-13T14:04:18;15.25;;;8.93;;
24635;SDS011;12772;49.794;10.024;2022-10-13T14:08:20;12.15;;;8.65;;
24635;SDS011;12772;49.794;10.024;2022-10-13T14:12:23;14.38;;;9.02;;
24635;SDS011;12772;49.794;10.024;2022-10-13T14:16:25;13.07;;;8.68;;
24635;SDS011;12772;49.794;10.024;2022-10-13T14:20:27;17.98;;;9.98;;
24635;SDS011;12772;49.794;10.024;2022-10-13T14:24:29;19.48;;;9.20;;
24635;SDS011;12772;49.794;10.024;2022-10-13T14:28:31;15.13;;;9.30;;
24635;SDS011;12772;49.794;10.024;2022-10-13T14:32:35;14.00;;;9.38;;
24635;SDS011;12772;49.794;10.024;2022-10-13T14:36:38;11.82;;;7.88;;
24635;SDS011;12772;49.794;10.024;2022-10-13T14:40:40;11.70;;;7.75;;
24635;SDS011;12772;49.794;10.024;2022-10-13T14:44:43;10.05;;;7.68;;
24635;SDS011;12772;49.794;10.024;2022-10-13T14:48:48;10.07;;;7.63;;
24635;SDS011;12772;49.794;10.024;2022-10-13T14:52:50;11.45;;;8.77;;
24635;SDS011;12772;49.794;10.024;2022-10-13T14:56:52;13.75;;;8.98;;
24635;SDS011;12772;49.794;10.024;2022-10-13T15:00:54;9.10;;;8.30;;
24635;SDS011;12772;49.794;10.024;2022-10-13T15:04:56;10.20;;;8.50;;
24635;SDS011;12772;49.794;10.024;2022-10-13T15:08:58;10.25;;;8.43;;
24635;SDS011;12772;49.794;10.024;2022-10-13T15:13:00;12.95;;;8.65;;
24635;SDS011;12772;49.794;10.024;2022-10-13T15:17:02;12.88;;;10.85;;
24635;SDS011;12772;49.794;10.024;2022-10-13T15:21:04;11.18;;;9.23;;
24635;SDS011;12772;49.794;10.024;2022-10-13T15:25:07;12.45;;;10.02;;
24635;SDS011;12772;49.794;10.024;2022-10-13T15:29:11;12.48;;;9.93;;
24635;SDS011;12772;49.794;10.024;2022-10-13T15:33:13;16.58;;;10.70;;
24635;SDS011;12772;49.794;10.024;2022-10-13T15:37:15;12.85;;;10.00;;
24635;SDS011;12772;49.794;10.024;2022-10-13T15:41:17;14.65;;;9.98;;
24635;SDS011;12772;49.794;10.024;2022-10-13T15:45:22;13.82;;;9.20;;
24635;SDS011;12772;49.794;10.024;2022-10-13T15:49:24;14.20;;;9.07;;
24635;SDS011;12772;49.794;10.024;2022-10-13T15:53:26;11.18;;;7.88;;
24635;SDS011;12772;49.794;10.024;2022-10-13T15:57:30;9.93;;;8.45;;
24635;SDS011;12772;49.794;10.024;2022-10-13T16:01:32;11.48;;;8.80;;
24635;SDS011;12772;49.794;10.024;2022-10-13T16:05:38;11.77;;;9.25;;
24635;SDS011;12772;49.794;10.024;2022-10-13T16:09:41;13.25;;;9.15;;
24635;SDS011;12772;49.794;10.024;2022-10-13T16:13:44;12.10;;;10.02;;
24635;SDS011;12772;49.794;10.024;2022-10-13T16:17:50;14.15;;;9.40;;
24635;SDS011;12772;49.794;10.024;2022-10-13T16:21:53;13.23;;;10.45;;
24635;SDS011;12772;49.794;10.024;2022-10-13T16:25:55;12.98;;;11.20;;
24635;SDS011;12772;49.794;10.024;2022-10-13T16:29:57;14.00;;;9.50;;
24635;SDS011;12772;49.794;10.024;2022-10-13T16:34:02;14.18;;;11.75;;
24635;SDS011;12772;49.794;10.024;2022-10-13T16:38:04;14.80;;;11.70;;
24635;SDS011;12772;49.794;10.024;2022-10-13T16:42:06;13.25;;;11.85;;
24635;SDS011;12772;49.794;10.024;2022-10-13T16:46:08;16.17;;;12.27;;
24635;SDS011;12772;49.794;10.024;2022-10-13T16:50:12;14.70;;;11.93;;
24635;SDS011;12772;49.794;10.024;2022-10-13T16:54:14;15.30;;;13.65;;
24635;SDS011;12772;49.794;10.024;2022-10-13T16:58:16;14.82;;;12.20;;
24635;SDS011;12772;49.794;10.024;2022-10-13T17:02:19;16.08;;;12.50;;
24635;SDS011;12772;49.794;10.024;2022-10-13T17:06:22;16.83;;;12.20;;
24635;SDS011;12772;49.794;10.024;2022-10-13T17:10:26;13.90;;;11.10;;
24635;SDS011;12772;49.794;10.024;2022-10-13T17:14:28;17.95;;;11.93;;
24635;SDS011;12772;49.794;10.024;2022-10-13T17:18:30;18.45;;;12.40;;
24635;SDS011;12772;49.794;10.024;2022-10-13T17:22:32;16.10;;;11.65;;
24635;SDS011;12772;49.794;10.024;2022-10-13T17:26:34;17.83;;;12.40;;
24635;SDS011;12772;49.794;10.024;2022-10-13T17:30:36;13.55;;;11.00;;
24635;SDS011;12772;49.794;10.024;2022-10-13T17:34:38;13.95;;;12.43;;
24635;SDS011;12772;49.794;10.024;2022-10-13T17:38:41;15.27;;;13.70;;
24635;SDS011;12772;49.794;10.024;2022-10-13T17:42:43;16.67;;;13.73;;
24635;SDS011;12772;49.794;10.024;2022-10-13T17:46:46;19.17;;;13.05;;
24635;SDS011;12772;49.794;10.024;2022-10-13T17:50:49;16.00;;;14.30;;
24635;SDS011;12772;49.794;10.024;2022-10-13T17:54:51;21.73;;;17.23;;
24635;SDS011;12772;49.794;10.024;2022-10-13T17:58:55;22.58;;;17.70;;
24635;SDS011;12772;49.794;10.024;2022-10-13T18:02:57;18.25;;;15.13;;
24635;SDS011;12772;49.794;10.024;2022-10-13T18:06:59;18.65;;;14.75;;
24635;SDS011;12772;49.794;10.024;2022-10-13T18:11:08;18.73;;;14.50;;
24635;SDS011;12772;49.794;10.024;2022-10-13T18:15:12;15.02;;;13.43;;
24635;SDS011;12772;49.794;10.024;2022-10-13T18:19:14;15.70;;;14.10;;
24635;SDS011;12772;49.794;10.024;2022-10-13T18:23:20;17.00;;;14.30;;
24635;SDS011;12772;49.794;10.024;2022-10-13T18:27:22;16.10;;;13.77;;
24635;SDS011;12772;49.794;10.024;2022-10-13T18:31:25;19.98;;;15.25;;
24635;SDS011;12772;49.794;10.024;2022-10-13T18:35:29;19.58;;;15.80;;
24635;SDS011;12772;49.794;10.024;2022-10-13T18:39:32;19.40;;;16.60;;
24635;SDS011;12772;49.794;10.024;2022-10-13T18:43:34;22.35;;;15.38;;
24635;SDS011;12772;49.794;10.024;2022-10-13T18:47:37;20.08;;;15.18;;
24635;SDS011;12772;49.794;10.024;2022-10-13T18:51:39;15.73;;;12.85;;
24635;SDS011;12772;49.794;10.024;2022-10-13T18:55:41;25.23;;;18.55;;
24635;SDS011;12772;49.794;10.024;2022-10-13T18:59:43;23.58;;;18.38;;
24635;SDS011;12772;49.794;10.024;2022-10-13T19:03:46;21.48;;;16.13;;
24635;SDS011;12772;49.794;10.024;2022-10-13T19:07:50;21.05;;;14.63;;
24635;SDS011;12772;49.794;10.024;2022-10-13T19:11:54;21.20;;;14.73;;
24635;SDS011;12772;49.794;10.024;2022-10-13T19:16:00;21.60;;;16.60;;
24635;SDS011;12772;49.794;10.024;2022-10-13T19:20:02;19.80;;;14.15;;
24635;SDS011;12772;49.794;10.024;2022-10-13T19:24:07;14.40;;;12.90;;
24635;SDS011;12772;49.794;10.024;2022-10-13T19:28:10;19.98;;;14.85;;
24635;SDS011;12772;49.794;10.024;2022-10-13T19:32:12;21.75;;;16.75;;
24635;SDS011;12772;49.794;10.024;2022-10-13T19:36:25;16.17;;;12.50;;
24635;SDS011;12772;49.794;10.024;2022-10-13T19:40:31;15.52;;;12.63;;
24635;SDS011;12772;49.794;10.024;2022-10-13T19:44:33;18.98;;;15.75;;
24635;SDS011;12772;49.794;10.024;2022-10-13T19:48:35;21.85;;;14.88;;
24635;SDS011;12772;49.794;10.024;2022-10-13T19:52:37;15.57;;;13.13;;
24635;SDS011;12772;49.794;10.024;2022-10-13T19:56:39;22.23;;;14.85;;
24635;SDS011;12772;49.794;10.024;2022-10-13T20:00:41;19.80;;;14.82;;
24635;SDS011;12772;49.794;10.024;2022-10-13T20:04:46;19.52;;;14.30;;
24635;SDS011;12772;49.794;10.024;2022-10-13T20:08:48;16.17;;;14.48;;
24635;SDS011;12772;49.794;10.024;2022-10-13T20:12:50;18.17;;;16.02;;
24635;SDS011;12772;49.794;10.024;2022-10-13T20:16:52;16.40;;;14.60;;
24635;SDS011;12772;49.794;10.024;2022-10-13T20:20:59;13.90;;;12.38;;
24635;SDS011;12772;49.794;10.024;2022-10-13T20:25:03;13.38;;;12.00;;
24635;SDS011;12772;49.794;10.024;2022-10-13T20:29:06;13.05;;;11.75;;
24635;SDS011;12772;49.794;10.024;2022-10-13T20:33:08;14.13;;;12.23;;
24635;SDS011;12772;49.794;10.024;2022-10-13T20:37:10;16.88;;;13.98;;
24635;SDS011;12772;49.794;10.024;2022-10-13T20:45:18;16.88;;;15.18;;
24635;SDS011;12772;49.794;10.024;2022-10-13T20:49:20;19.00;;;15.00;;
24635;SDS011;12772;49.794;10.024;2022-10-13T20:53:22;31.10;;;24.42;;
24635;SDS011;12772;49.794;10.024;2022-10-13T20:57:24;20.58;;;18.40;;
24635;SDS011;12772;49.794;10.024;2022-10-13T21:01:26;23.08;;;17.42;;
24635;SDS011;12772;49.794;10.024;2022-10-13T21:05:30;17.77;;;16.08;;
24635;SDS011;12772;49.794;10.024;2022-10-13T21:09:33;18.55;;;15.73;;
24635;SDS011;12772;49.794;10.024;2022-10-13T21:13:36;24.42;;;17.52;;
24635;SDS011;12772;49.794;10.024;2022-10-13T21:17:39;20.33;;;14.85;;
24635;SDS011;12772;49.794;10.024;2022-10-13T21:21:41;16.05;;;14.38;;
24635;SDS011;12772;49.794;10.024;2022-10-13T21:25:43;17.58;;;15.77;;
24635;SDS011;12772;49.794;10.024;2022-10-13T21:29:46;19.33;;;16.45;;
24635;SDS011;12772;49.794;10.024;2022-10-13T21:33:48;20.20;;;16.38;;
24635;SDS011;12772;49.794;10.024;2022-10-13T21:37:50;15.93;;;14.15;;
24635;SDS011;12772;49.794;10.024;2022-10-13T21:41:52;17.25;;;13.88;;
24635;SDS011;12772;49.794;10.024;2022-10-13T21:45:54;17.80;;;14.45;;
24635;SDS011;12772;49.794;10.024;2022-10-13T21:49:56;16.92;;;12.80;;
24635;SDS011;12772;49.794;10.024;2022-10-13T21:54:08;17.23;;;14.50;;
24635;SDS011;12772;49.794;10.024;2022-10-13T21:58:11;14.48;;;11.90;;
24635;SDS011;12772;49.794;10.024;2022-10-13T22:02:14;16.67;;;14.25;;
24635;SDS011;12772;49.794;10.024;2022-10-13T22:06:16;15.63;;;13.25;;
24635;SDS011;12772;49.794;10.024;2022-10-13T22:10:19;14.52;;;12.75;;
24635;SDS011;12772;49.794;10.024;2022-10-13T22:14:21;15.77;;;13.48;;
24635;SDS011;12772;49.794;10.024;2022-10-13T22:18:23;15.95;;;14.25;;
24635;SDS011;12772;49.794;10.024;2022-10-13T22:22:25;18.88;;;14.20;;
24635;SDS011;12772;49.794;10.024;2022-10-13T22:26:28;16.92;;;13.55;;
24635;SDS011;12772;49.794;10.024;2022-10-13T22:30:34;17.85;;;14.93;;
24635;SDS011;12772;49.794;10.024;2022-10-13T22:34:37;19.67;;;15.60;;
24635;SDS011;12772;49.794;10.024;2022-10-13T22:38:39;16.13;;;14.43;;
24635;SDS011;12772;49.794;10.024;2022-10-13T22:42:41;18.92;;;16.95;;
24635;SDS011;12772;49.794;10.024;2022-10-13T22:46:43;18.67;;;15.73;;
24635;SDS011;12772;49.794;10.024;2022-10-13T22:50:45;18.67;;;16.50;;
24635;SDS011;12772;49.794;10.024;2022-10-13T22:54:47;17.52;;;14.93;;
24635;SDS011;12772;49.794;10.024;2022-10-13T22:58:54;16.25;;;14.50;;
24635;SDS011;12772;49.794;10.024;2022-10-13T23:03:01;20.20;;;15.07;;
24635;SDS011;12772;49.794;10.024;2022-10-13T23:07:03;16.48;;;12.98;;
24635;SDS011;12772;49.794;10.024;2022-10-13T23:11:05;15.35;;;12.10;;
24635;SDS011;12772;49.794;10.024;2022-10-13T23:15:08;12.13;;;10.35;;
24635;SDS011;12772;49.794;10.024;2022-10-13T23:19:10;11.13;;;9.98;;
24635;SDS011;12772;49.794;10.024;2022-10-13T23:23:12;10.40;;;9.02;;
24635;SDS011;12772;49.794;10.024;2022-10-13T23:27:15;9.15;;;8.20;;
24635;SDS011;12772;49.794;10.024;2022-10-13T23:31:17;7.40;;;6.70;;
24635;SDS011;12772;49.794;10.024;2022-10-13T23:35:20;6.47;;;5.82;;
24635;SDS011;12772;49.794;10.024;2022-10-13T23:39:22;6.47;;;5.78;;
24635;SDS011;12772;49.794;10.024;2022-10-13T23:43:24;6.13;;;5.63;;
24635;SDS011;12772;49.794;10.024;2022-10-13T23:47:26;5.90;;;5.28;;
24635;SDS011;12772;49.794;10.024;2022-10-13T23:51:28;5.82;;;5.28;;
24635;SDS011;12772;49.794;10.024;2022-10-13T23:55:30;7.25;;;6.18;;
24635;SDS011;12772;49.794;10.024;2022-10-13T23:59:32;7.15;;;5.70;;
